This is the latest recevied weather packets stored in our database for station/object KI4HRG. If no packets are shown the sender has not sent any weather packets the latest 10 day(s).
| Time | Temp. | Humidity | Pressure | Rain* | Wind** | Luminosity | Snow |
|---|---|---|---|---|---|---|---|
| 1777483665 | 23.89° C | 89% | 1013.6 hPa | 0 mm | - | 131 W/m² | - |
| 1777483360 | 23.89° C | 89% | 1013.6 hPa | 0 mm | - | 170 W/m² | - |
| 1777483055 | 23.89° C | 89% | 1013.7 hPa | 0 mm | - | 136 W/m² | - |
| 1777482753 | 23.89° C | 88% | 1013.9 hPa | 0 mm | - | 112 W/m² | - |
| 1777482449 | 24.44° C | 88% | 1013.6 hPa | 0 mm | - | 201 W/m² | - |
| 1777482146 | 24.44° C | 87% | 1013.9 hPa | 0 mm | - | 367 W/m² | - |
| 1777481844 | 24.44° C | 87% | 1013.8 hPa | 0 mm | - | 419 W/m² | - |
| 1777481541 | 23.89° C | 90% | 1013.9 hPa | 0 mm | - | 417 W/m² | - |
| 1777481238 | 23.33° C | 90% | 1014 hPa | 0 mm | - | 298 W/m² | - |
| 1777480935 | 23.89° C | 91% | 1013.8 hPa | 0 mm | - | 132 W/m² | - |
| 1777480631 | 23.89° C | 91% | 1014.1 hPa | 0 mm | - | 153 W/m² | - |
| 1777480328 | 23.33° C | 91% | 1014.2 hPa | 0 mm | - | 199 W/m² | - |
| 1777480023 | 23.33° C | 91% | 1014.2 hPa | 0 mm | - | 187 W/m² | - |
| 1777479721 | 23.89° C | 91% | 1014.3 hPa | 0 mm | - | 147 W/m² | - |
| 1777479418 | 23.33° C | 91% | 1014.6 hPa | 0 mm | - | 292 W/m² | - |
| 1777479114 | 23.33° C | 91% | 1014.1 hPa | 0 mm | - | 153 W/m² | - |
| 1777478806 | 23.33° C | 91% | 1014 hPa | 0 mm | - | 156 W/m² | - |
| 1777478502 | 23.33° C | 91% | 1014.1 hPa | 0 mm | - | 229 W/m² | - |
| 1777478199 | 23.33° C | 92% | 1014.1 hPa | 0 mm | - | 242 W/m² | - |
| 1777477895 | 23.33° C | 93% | 1014.2 hPa | 0 mm | - | 351 W/m² | - |
| 1777477591 | 23.33° C | 93% | 1014 hPa | 0 mm | - | 216 W/m² | - |
| 1777477287 | 22.78° C | 93% | 1014.1 hPa | 0 mm | - | 211 W/m² | - |
| 1777476984 | 22.78° C | 93% | 1014.1 hPa | 0 mm | - | 157 W/m² | - |
| 1777476682 | 23.33° C | 92% | 1014.2 hPa | 0 mm | - | 181 W/m² | - |
| 1777476378 | 23.33° C | 91% | 1014.1 hPa | 0 mm | - | 240 W/m² | - |
* Rain latest hour (hover to see other rain measurements)
** Current wind speed in m/s (hover to see current wind gust speed)